createdAt,value
2019-02-12T00:01:27.085Z,9.67
2019-02-12T00:06:49.278Z,15.63
2019-02-12T00:12:04.463Z,4.80
2019-02-12T00:17:26.699Z,3.73
2019-02-12T00:22:48.949Z,2.50
2019-02-12T00:28:11.212Z,10.53
2019-02-12T00:39:36.030Z,14.33
2019-02-12T00:44:58.233Z,6.00
2019-02-12T00:50:20.446Z,1.90
2019-02-12T00:55:42.642Z,6.83
2019-02-12T01:01:04.841Z,7.00
2019-02-12T01:06:27.039Z,1.20
2019-02-12T01:11:49.256Z,8.77
2019-02-12T01:17:11.503Z,8.83
2019-02-12T01:22:33.700Z,2.20
2019-02-12T01:27:55.880Z,8.60
2019-02-12T01:33:18.069Z,11.57
2019-02-12T01:38:40.256Z,8.90
2019-02-12T01:44:02.450Z,6.87
2019-02-12T01:49:24.648Z,14.83
2019-02-12T01:54:46.861Z,11.30
2019-02-12T02:00:11.472Z,5.80
2019-02-12T02:05:33.671Z,10.70
2019-02-12T02:11:15.416Z,7.30
2019-02-12T02:16:30.665Z,6.43
2019-02-12T02:21:52.895Z,6.27
2019-02-12T02:27:15.103Z,2.33
2019-02-12T02:32:37.280Z,6.70
2019-02-12T02:43:33.501Z,10.50
2019-02-12T02:48:55.820Z,1.47
2019-02-12T02:54:18.127Z,4.60
2019-02-12T02:59:40.379Z,7.43
2019-02-12T03:05:02.594Z,8.23
2019-02-12T03:10:24.800Z,4.07
2019-02-12T03:16:45.929Z,3.43
2019-02-12T03:21:23.012Z,2.70
2019-02-12T03:26:45.307Z,6.30
2019-02-12T03:33:05.146Z,6.90
2019-02-12T03:38:16.669Z,6.40
2019-02-12T03:43:38.913Z,6.63
2019-02-12T03:49:01.139Z,7.73
2019-02-12T03:54:23.322Z,7.43
2019-02-12T03:59:45.514Z,3.87
2019-02-12T04:27:28.948Z,7.83
2019-02-12T04:32:51.221Z,10.43
2019-02-12T04:38:13.485Z,21.50
2019-02-12T04:43:35.634Z,8.33
2019-02-12T04:48:57.843Z,6.93
2019-02-12T04:54:20.025Z,3.63
2019-02-12T04:59:42.322Z,1.57
2019-02-12T05:05:04.992Z,3.00
2019-02-12T05:10:10.715Z,3.10
2019-02-12T05:15:27.200Z,3.47
2019-02-12T05:20:49.425Z,2.83
2019-02-12T05:26:11.603Z,5.60
2019-02-12T05:31:33.785Z,5.13
2019-02-12T05:36:56.969Z,2.13
2019-02-12T05:42:20.184Z,5.00
2019-02-12T05:47:43.692Z,2.00
2019-02-12T05:53:21.997Z,3.03
2019-02-12T05:58:45.583Z,8.23
2019-02-12T06:04:22.802Z,1.20
2019-02-12T06:09:17.361Z,12.73
2019-02-12T06:14:20.210Z,7.30
2019-02-12T06:19:42.392Z,9.33
2019-02-12T06:25:07.773Z,8.23
2019-02-12T06:30:09.370Z,2.30
2019-02-12T06:35:31.564Z,2.93
2019-02-12T06:40:53.803Z,10.33
2019-02-12T06:46:15.998Z,3.60
2019-02-12T06:51:18.675Z,2.70
2019-02-12T06:56:21.364Z,7.00
2019-02-12T07:01:43.572Z,4.50
2019-02-12T07:07:44.734Z,3.00
2019-02-12T07:13:22.152Z,8.27
2019-02-12T07:19:23.347Z,4.07
2019-02-12T07:25:24.567Z,4.70
2019-02-12T07:31:25.740Z,1.47
2019-02-12T07:37:26.909Z,0.97
2019-02-12T07:43:20.362Z,8.17
2019-02-12T07:49:15.697Z,3.80
2019-02-12T07:55:09.307Z,7.93
2019-02-12T08:00:37.686Z,8.03
2019-02-12T08:06:18.400Z,1.53
2019-02-12T08:12:03.759Z,18.93
2019-02-12T08:17:51.262Z,2.73
2019-02-12T08:23:41.039Z,4.73
2019-02-12T08:29:31.817Z,9.07
2019-02-12T08:35:57.121Z,1.33
2019-02-12T08:41:30.742Z,3.93
2019-02-12T08:47:45.201Z,6.17
2019-02-12T08:53:57.314Z,4.93
2019-02-12T08:59:28.201Z,11.30
2019-02-12T09:05:13.035Z,5.70
2019-02-12T09:11:16.823Z,10.33
2019-02-12T09:17:23.787Z,7.60
2019-02-12T09:23:15.076Z,1.80
2019-02-12T09:29:05.377Z,4.20
2019-02-12T09:34:37.121Z,5.33
2019-02-12T09:40:21.143Z,8.47
2019-02-12T09:46:35.468Z,11.73
2019-02-12T09:52:25.826Z,6.10
2019-02-12T09:58:32.646Z,8.60
2019-02-12T10:04:48.807Z,6.43
2019-02-12T10:10:45.587Z,3.53
2019-02-12T10:16:32.255Z,2.27
2019-02-12T10:22:32.183Z,1.83
2019-02-12T10:28:21.285Z,3.90
2019-02-12T10:33:23.994Z,8.37
2019-02-12T10:38:26.672Z,7.93
2019-02-12T10:43:29.378Z,10.80
2019-02-12T10:48:32.063Z,2.37
2019-02-12T10:53:34.757Z,6.30
2019-02-12T10:58:37.436Z,14.67
2019-02-12T11:03:40.120Z,4.73
2019-02-12T11:08:42.815Z,9.23
2019-02-12T11:13:45.550Z,8.73
2019-02-12T11:18:48.260Z,9.60
2019-02-12T11:23:50.975Z,8.63
2019-02-12T11:28:53.658Z,2.50
2019-02-12T11:33:56.413Z,5.80
2019-02-12T11:38:59.093Z,12.50
2019-02-12T11:44:01.780Z,8.00
2019-02-12T11:49:04.457Z,7.10
2019-02-12T11:54:07.135Z,8.63
2019-02-12T11:59:09.829Z,9.77
2019-02-12T12:04:12.519Z,10.57
2019-02-12T12:09:15.201Z,10.60
2019-02-12T12:14:17.913Z,5.37
2019-02-12T12:19:20.609Z,7.90
2019-02-12T12:24:23.296Z,9.53
2019-02-12T12:29:25.986Z,4.63
2019-02-12T12:34:28.678Z,1.90
2019-02-12T12:39:31.359Z,5.03
2019-02-12T12:44:34.045Z,5.40
2019-02-12T12:49:36.741Z,6.13
2019-02-12T12:54:39.427Z,1.37
2019-02-12T12:59:42.124Z,4.03
2019-02-12T13:04:44.800Z,5.33
2019-02-12T13:09:47.484Z,5.03
2019-02-12T13:14:50.200Z,8.17
2019-02-12T13:19:52.885Z,8.77
2019-02-12T13:24:55.581Z,21.67
2019-02-12T13:30:00.133Z,11.13
2019-02-12T13:35:03.275Z,6.47
2019-02-12T13:40:08.203Z,9.07
2019-02-12T13:45:12.424Z,7.60
2019-02-12T13:50:15.121Z,14.20
2019-02-12T13:55:17.912Z,18.50
2019-02-12T14:00:20.708Z,6.60
2019-02-12T14:05:23.392Z,6.50
2019-02-12T14:10:26.081Z,16.30
2019-02-12T14:15:28.795Z,12.10
2019-02-12T14:20:31.468Z,4.70
2019-02-12T14:25:34.172Z,10.23
2019-02-12T14:30:36.868Z,16.60
2019-02-12T14:35:39.559Z,7.43
2019-02-12T14:40:42.266Z,8.33
2019-02-12T14:45:51.885Z,7.40
2019-02-12T14:50:54.571Z,11.37
2019-02-12T14:55:57.289Z,5.30
2019-02-12T15:00:59.972Z,3.60
2019-02-12T15:06:02.675Z,13.00
2019-02-12T15:11:05.380Z,10.20
2019-02-12T15:16:08.080Z,22.03
2019-02-12T15:21:10.773Z,6.60
2019-02-12T15:26:13.454Z,6.23
2019-02-12T15:31:16.166Z,10.10
2019-02-12T15:36:18.874Z,16.67
2019-02-12T15:41:21.552Z,8.60
2019-02-12T15:46:24.251Z,13.03
2019-02-12T15:51:26.949Z,15.03
2019-02-12T15:56:29.650Z,10.20
2019-02-12T16:01:32.329Z,10.50
2019-02-12T16:06:35.037Z,14.57
2019-02-12T16:11:37.723Z,13.53
2019-02-12T16:16:40.416Z,14.13
2019-02-12T16:21:43.113Z,12.10
2019-02-12T16:26:45.894Z,12.03
2019-02-12T16:31:48.567Z,20.90
2019-02-12T16:36:51.253Z,12.73
2019-02-12T16:41:53.949Z,11.13
2019-02-12T16:46:56.674Z,16.67
2019-02-12T16:51:59.515Z,13.93
2019-02-12T16:57:02.331Z,19.43
2019-02-12T17:02:05.057Z,16.90
2019-02-12T17:07:07.805Z,17.83
2019-02-12T17:12:10.513Z,12.70
2019-02-12T17:17:13.208Z,9.47
2019-02-12T17:22:15.930Z,11.77
2019-02-12T17:27:18.637Z,12.60
2019-02-12T17:32:21.308Z,18.80
2019-02-12T17:37:23.994Z,16.90
2019-02-12T17:42:26.683Z,22.60
2019-02-12T17:47:29.363Z,21.50
2019-02-12T17:52:32.225Z,22.97
2019-02-12T17:57:35.035Z,22.93
2019-02-12T18:02:37.708Z,23.23
2019-02-12T18:07:40.391Z,24.87
2019-02-12T18:12:43.398Z,19.90
2019-02-12T18:17:46.164Z,21.63
2019-02-12T18:22:48.947Z,22.50
2019-02-12T18:27:51.701Z,27.90
2019-02-12T18:32:54.354Z,24.00
2019-02-12T18:37:57.298Z,22.57
2019-02-12T18:42:59.981Z,24.10
2019-02-12T18:48:02.689Z,17.53
2019-02-12T18:53:05.502Z,18.97
2019-02-12T18:58:08.209Z,27.77
2019-02-12T19:03:10.906Z,24.13
2019-02-12T19:08:13.598Z,26.07
2019-02-12T19:13:16.332Z,22.13
2019-02-12T19:18:23.257Z,29.47
2019-02-12T19:23:25.956Z,21.07
2019-02-12T19:28:28.627Z,22.03
2019-02-12T19:33:31.339Z,22.13
2019-02-12T19:38:35.118Z,19.33
2019-02-12T19:43:37.801Z,27.30
2019-02-12T19:48:40.486Z,25.67
2019-02-12T19:53:43.191Z,19.37
2019-02-12T19:58:45.888Z,34.73
2019-02-12T20:03:48.686Z,25.00
2019-02-12T20:08:51.393Z,23.10
2019-02-12T20:13:54.105Z,27.83
2019-02-12T20:18:56.878Z,32.73
2019-02-12T20:24:01.290Z,32.60
2019-02-12T20:29:04.082Z,23.43
2019-02-12T20:34:06.785Z,29.33
2019-02-12T20:39:09.474Z,32.20
2019-02-12T20:44:12.168Z,31.37
2019-02-12T20:49:14.931Z,22.50
2019-02-12T20:54:17.644Z,30.17
2019-02-12T20:59:20.351Z,22.03
2019-02-12T21:04:23.050Z,22.00
2019-02-12T21:09:25.778Z,25.70
2019-02-12T21:14:28.591Z,29.07
2019-02-12T21:19:31.357Z,33.67
2019-02-12T21:24:34.051Z,26.80
2019-02-12T21:29:36.784Z,32.13
2019-02-12T21:34:39.513Z,27.00
2019-02-12T21:39:42.397Z,30.60
2019-02-12T21:44:45.206Z,43.63
2019-02-12T21:49:48.159Z,24.00
2019-02-12T21:54:50.845Z,28.63
2019-02-12T21:59:53.563Z,30.80
2019-02-12T22:04:56.253Z,27.03
2019-02-12T22:09:59.011Z,29.33
2019-02-12T22:15:01.720Z,32.40
2019-02-12T22:20:04.844Z,25.60
2019-02-12T22:25:07.742Z,30.43
2019-02-12T22:30:15.974Z,31.63
2019-02-12T22:35:18.682Z,32.47
2019-02-12T22:40:21.367Z,30.77
2019-02-12T22:45:24.132Z,29.50
2019-02-12T22:50:26.830Z,29.80
2019-02-12T22:55:29.519Z,31.03
2019-02-12T23:01:01.489Z,35.53
2019-02-12T23:06:04.197Z,24.67
2019-02-12T23:11:09.342Z,25.60
2019-02-12T23:16:12.025Z,29.83
2019-02-12T23:21:14.720Z,34.83
2019-02-12T23:26:17.700Z,32.67
2019-02-12T23:31:20.397Z,25.03
2019-02-12T23:36:23.101Z,39.27
2019-02-12T23:41:25.801Z,33.30
2019-02-12T23:46:28.483Z,31.50
2019-02-12T23:51:31.165Z,30.70
2019-02-12T23:56:33.857Z,29.60
